createdAt,value
2023-01-17T00:02:07.451Z,97274.13
2023-01-17T00:04:52.779Z,97282.34
2023-01-17T00:07:56.308Z,97282.34
2023-01-17T00:10:25.334Z,97272.88
2023-01-17T00:13:03.300Z,97284.84
2023-01-17T00:15:31.262Z,97284.25
2023-01-17T00:17:58.496Z,97279.50
2023-01-17T00:20:46.665Z,97284.25
2023-01-17T00:23:41.998Z,97276.66
2023-01-17T00:26:15.689Z,97278.88
2023-01-17T00:28:43.475Z,97282.53
2023-01-17T00:31:13.873Z,97282.06
2023-01-17T00:33:40.390Z,97277.34
2023-01-17T00:36:07.854Z,97280.66
2023-01-17T00:38:36.890Z,97283.50
2023-01-17T00:41:09.009Z,97294.53
2023-01-17T00:43:54.823Z,97290.28
2023-01-17T00:46:40.445Z,97295.84
2023-01-17T00:49:25.906Z,97297.72
2023-01-17T00:52:11.057Z,97295.19
2023-01-17T00:54:56.140Z,97299.13
2023-01-17T00:57:41.111Z,97308.63
2023-01-17T01:00:26.840Z,97310.97
2023-01-17T01:03:12.020Z,97310.81
2023-01-17T01:05:57.391Z,97330.13
2023-01-17T01:08:46.286Z,97319.63
2023-01-17T01:11:33.629Z,97325.00
2023-01-17T01:14:19.875Z,97324.41
2023-01-17T01:17:05.372Z,97325.44
2023-01-17T01:19:50.966Z,97332.72
2023-01-17T01:22:36.125Z,97343.78
2023-01-17T01:25:21.119Z,97341.97
2023-01-17T01:28:06.323Z,97356.31
2023-01-17T01:30:51.468Z,97358.72
2023-01-17T01:33:20.872Z,97363.94
2023-01-17T01:35:53.646Z,97366.47
2023-01-17T01:38:23.738Z,97381.31
2023-01-17T01:40:53.240Z,97380.78
2023-01-17T01:43:38.861Z,97374.81
2023-01-17T01:46:06.355Z,97379.56
2023-01-17T01:48:43.649Z,97388.41
2023-01-17T01:51:13.460Z,97378.66
2023-01-17T01:53:45.195Z,97386.88
2023-01-17T01:56:13.696Z,97391.22
2023-01-17T01:58:44.495Z,97395.91
2023-01-17T02:01:11.344Z,97399.38
2023-01-17T02:03:40.829Z,97404.50
2023-01-17T02:06:25.687Z,97404.31
2023-01-17T02:08:52.507Z,97396.09
2023-01-17T02:11:19.139Z,97417.06
2023-01-17T02:13:45.573Z,97419.56
2023-01-17T02:16:38.575Z,97420.91
2023-01-17T02:19:14.153Z,97434.06
2023-01-17T02:21:57.960Z,97418.88
2023-01-17T02:24:39.993Z,97414.38
2023-01-17T02:27:35.458Z,97417.38
2023-01-17T02:30:33.375Z,97415.03
2023-01-17T02:33:15.677Z,97437.63
2023-01-17T02:36:19.013Z,97428.88
2023-01-17T02:38:51.027Z,97433.94
2023-01-17T02:41:27.634Z,97436.16
2023-01-17T02:43:54.102Z,97444.31
2023-01-17T02:46:20.966Z,97435.53
2023-01-17T02:48:48.078Z,97437.88
2023-01-17T02:51:49.912Z,97448.22
2023-01-17T02:54:42.260Z,97443.16
2023-01-17T02:57:36.735Z,97443.16
2023-01-17T03:00:47.672Z,97442.09
2023-01-17T03:03:45.393Z,97436.16
2023-01-17T03:06:21.613Z,97443.47
2023-01-17T03:08:51.428Z,97438.28
2023-01-17T03:11:18.015Z,97450.75
2023-01-17T03:13:44.702Z,97452.00
2023-01-17T03:16:17.102Z,97447.25
2023-01-17T03:18:44.001Z,97449.19
2023-01-17T03:21:10.620Z,97459.44
2023-01-17T03:23:37.071Z,97458.19
2023-01-17T03:26:03.998Z,97460.88
2023-01-17T03:28:30.461Z,97452.19
2023-01-17T03:30:56.934Z,97465.28
2023-01-17T03:33:24.117Z,97473.28
2023-01-17T03:35:50.643Z,97468.16
2023-01-17T03:38:17.179Z,97483.28
2023-01-17T03:40:43.587Z,97492.66
2023-01-17T03:43:10.034Z,97490.63
2023-01-17T03:45:37.432Z,97501.25
2023-01-17T03:48:04.199Z,97514.34
2023-01-17T03:50:30.591Z,97520.16
2023-01-17T03:52:57.210Z,97525.03
2023-01-17T03:55:23.721Z,97533.09
2023-01-17T03:57:50.236Z,97537.44
2023-01-17T04:00:17.094Z,97546.16
2023-01-17T04:02:43.552Z,97555.63
2023-01-17T04:05:10.009Z,97550.84
2023-01-17T04:07:36.463Z,97545.34
2023-01-17T04:10:03.479Z,97547.75
2023-01-17T04:12:30.145Z,97541.50
2023-01-17T04:14:56.609Z,97534.53
2023-01-17T04:17:23.079Z,97546.31
2023-01-17T04:19:49.512Z,97550.56
2023-01-17T04:22:16.861Z,97555.94
2023-01-17T04:24:43.276Z,97559.09
2023-01-17T04:27:14.133Z,97553.44
2023-01-17T04:29:40.609Z,97566.69
2023-01-17T04:32:07.221Z,97577.22
2023-01-17T04:34:33.861Z,97571.84
2023-01-17T04:37:00.372Z,97595.03
2023-01-17T04:39:26.967Z,97599.59
2023-01-17T04:41:53.401Z,97601.91
2023-01-17T04:44:19.779Z,97610.13
2023-01-17T04:46:46.176Z,97620.00
2023-01-17T04:49:12.621Z,97626.84
2023-01-17T04:51:39.070Z,97626.78
2023-01-17T04:54:05.561Z,97626.25
2023-01-17T04:56:32.325Z,97681.31
2023-01-17T04:58:59.031Z,97643.75
2023-01-17T05:01:25.812Z,97640.69
2023-01-17T05:03:52.302Z,97638.97
2023-01-17T05:06:18.873Z,97659.94
2023-01-17T05:08:45.289Z,97666.09
2023-01-17T05:11:11.673Z,97661.41
2023-01-17T05:13:38.117Z,97680.00
2023-01-17T05:16:04.898Z,97686.09
2023-01-17T05:18:31.458Z,97697.50
2023-01-17T05:21:03.394Z,97708.38
2023-01-17T05:23:29.949Z,97710.78
2023-01-17T05:25:56.424Z,97738.56
2023-01-17T05:28:22.919Z,97728.78
2023-01-17T05:30:49.352Z,97721.41
2023-01-17T05:33:15.878Z,97736.34
2023-01-17T05:35:42.924Z,97748.22
2023-01-17T05:38:09.459Z,97742.00
2023-01-17T05:40:36.060Z,97745.63
2023-01-17T05:43:05.621Z,97754.22
2023-01-17T05:45:33.384Z,97761.53
2023-01-17T05:48:00.772Z,97771.00
2023-01-17T05:50:38.122Z,97784.53
2023-01-17T05:53:10.266Z,97780.13
2023-01-17T05:55:36.892Z,97787.22
2023-01-17T05:58:04.148Z,97785.63
2023-01-17T06:00:31.821Z,97796.72
2023-01-17T06:02:59.992Z,97797.44
2023-01-17T06:05:28.005Z,97816.03
2023-01-17T06:07:54.871Z,97819.22
2023-01-17T06:10:22.207Z,97824.13
2023-01-17T06:12:49.159Z,97828.91
2023-01-17T06:15:17.805Z,97840.47
2023-01-17T06:17:44.270Z,97846.19
2023-01-17T06:20:12.250Z,97847.72
2023-01-17T06:22:38.835Z,97850.69
2023-01-17T06:25:05.595Z,97850.47
2023-01-17T06:27:32.387Z,97865.13
2023-01-17T06:29:59.014Z,97863.00
2023-01-17T06:32:25.465Z,97868.00
2023-01-17T06:34:51.880Z,97876.94
2023-01-17T06:37:18.327Z,97880.97
2023-01-17T06:39:44.954Z,97877.75
2023-01-17T06:42:11.391Z,97884.16
2023-01-17T06:44:38.120Z,97892.75
2023-01-17T06:47:04.751Z,97891.41
2023-01-17T06:49:31.302Z,97897.63
2023-01-17T06:51:57.714Z,97905.38
2023-01-17T06:54:24.166Z,97905.13
2023-01-17T06:56:50.567Z,97921.25
2023-01-17T06:59:16.962Z,97916.53
2023-01-17T07:01:43.442Z,97912.72
2023-01-17T07:04:09.921Z,97931.97
2023-01-17T07:06:37.087Z,97927.22
2023-01-17T07:09:04.813Z,97939.25
2023-01-17T07:11:31.944Z,97934.41
2023-01-17T07:13:58.583Z,97943.06
2023-01-17T07:16:25.402Z,97945.28
2023-01-17T07:18:54.638Z,97948.13
2023-01-17T07:21:21.083Z,97946.97
2023-01-17T07:23:48.175Z,97963.81
2023-01-17T07:26:16.800Z,97965.44
2023-01-17T07:28:43.395Z,97963.03
2023-01-17T07:31:10.286Z,97963.66
2023-01-17T07:33:36.757Z,97964.28
2023-01-17T07:36:07.847Z,97969.91
2023-01-17T07:38:34.944Z,97966.50
2023-01-17T07:41:02.265Z,97980.16
2023-01-17T07:43:28.805Z,97970.00
2023-01-17T07:45:55.472Z,97966.81
2023-01-17T07:48:24.413Z,97969.97
2023-01-17T07:50:55.603Z,97969.66
2023-01-17T07:53:24.533Z,97977.94
2023-01-17T07:55:51.781Z,97979.03
2023-01-17T07:58:18.421Z,97979.31
2023-01-17T08:00:44.975Z,97977.97
2023-01-17T08:03:14.100Z,97985.97
2023-01-17T08:05:42.485Z,97992.94
2023-01-17T08:08:09.320Z,97995.00
2023-01-17T08:10:36.469Z,97994.09
2023-01-17T08:13:04.919Z,97997.19
2023-01-17T08:15:31.426Z,97992.72
2023-01-17T08:17:58.702Z,97997.81
2023-01-17T08:20:27.789Z,98009.78
2023-01-17T08:22:56.246Z,98006.94
2023-01-17T08:25:24.454Z,98009.84
2023-01-17T08:27:51.907Z,98012.28
2023-01-17T08:30:18.688Z,98020.56
2023-01-17T08:32:45.102Z,98020.00
2023-01-17T08:35:11.537Z,98027.59
2023-01-17T08:37:39.164Z,98026.53
2023-01-17T08:40:07.114Z,98031.44
2023-01-17T08:42:39.168Z,98031.94
2023-01-17T08:45:07.686Z,98054.47
2023-01-17T08:47:35.000Z,98048.22
2023-01-17T08:50:02.037Z,98067.03
2023-01-17T08:52:29.139Z,98070.53
2023-01-17T08:54:55.617Z,98067.84
2023-01-17T08:57:22.433Z,98071.31
2023-01-17T08:59:48.828Z,98087.13
2023-01-17T09:02:17.505Z,98087.34
2023-01-17T09:04:48.685Z,98088.50
2023-01-17T09:07:17.424Z,98079.31
2023-01-17T09:09:43.904Z,98092.44
2023-01-17T09:12:10.480Z,98098.00
2023-01-17T09:14:37.720Z,98095.66
2023-01-17T09:17:06.797Z,98102.31
2023-01-17T09:19:33.427Z,98109.00
2023-01-17T09:22:00.282Z,98108.72
2023-01-17T09:24:26.919Z,98111.66
2023-01-17T09:26:53.303Z,98118.25
2023-01-17T09:29:20.067Z,98123.38
2023-01-17T09:31:49.853Z,98122.53
2023-01-17T09:34:18.461Z,98127.97
2023-01-17T09:36:44.996Z,98118.09
2023-01-17T09:39:15.232Z,98124.47
2023-01-17T09:42:00.286Z,98126.47
2023-01-17T09:44:45.312Z,98129.66
2023-01-17T09:47:19.250Z,98131.00
2023-01-17T09:49:46.988Z,98133.41
2023-01-17T09:52:20.878Z,98136.97
2023-01-17T09:54:49.243Z,98154.72
2023-01-17T09:57:23.521Z,98155.69
2023-01-17T10:00:25.153Z,98157.84
2023-01-17T10:03:23.149Z,98152.50
2023-01-17T10:06:03.214Z,98155.44
2023-01-17T10:08:53.261Z,98149.03
2023-01-17T10:11:44.749Z,98143.06
2023-01-17T10:14:35.357Z,98139.88
2023-01-17T10:17:21.759Z,98139.59
2023-01-17T10:20:19.132Z,98144.97
2023-01-17T10:23:08.553Z,98139.44
2023-01-17T10:25:49.226Z,98147.47
2023-01-17T10:28:41.476Z,98138.25
2023-01-17T10:31:18.087Z,98139.53
2023-01-17T10:33:54.971Z,98139.94
2023-01-17T10:36:41.153Z,98149.31
2023-01-17T10:39:23.516Z,98145.44
2023-01-17T10:41:55.634Z,98157.81
2023-01-17T10:44:34.202Z,98152.44
2023-01-17T10:47:09.602Z,98158.69
2023-01-17T10:49:39.684Z,98150.00
2023-01-17T10:52:34.164Z,98143.28
2023-01-17T10:55:18.774Z,98147.38
2023-01-17T10:57:48.166Z,98145.28
2023-01-17T11:00:41.727Z,98151.16
2023-01-17T11:03:11.481Z,98146.34
2023-01-17T11:05:38.445Z,98142.75
2023-01-17T11:08:05.168Z,98152.69
2023-01-17T11:10:47.170Z,98164.56
2023-01-17T11:13:34.260Z,98155.88
2023-01-17T11:16:05.947Z,98154.47
2023-01-17T11:18:39.306Z,98154.97
2023-01-17T11:21:09.500Z,98165.13
2023-01-17T11:23:35.998Z,98161.75
2023-01-17T11:26:05.989Z,98152.56
2023-01-17T11:28:34.498Z,98158.56
2023-01-17T11:31:04.300Z,98160.19
2023-01-17T11:33:45.202Z,98165.28
2023-01-17T11:36:17.794Z,98159.56
2023-01-17T11:39:03.098Z,98160.63
2023-01-17T11:41:48.449Z,98172.06
2023-01-17T11:44:22.617Z,98169.50
2023-01-17T11:47:08.175Z,98177.28
2023-01-17T11:49:36.133Z,98179.22
2023-01-17T11:52:22.160Z,98176.94
2023-01-17T11:54:49.722Z,98177.78
2023-01-17T11:57:22.619Z,98173.25
2023-01-17T11:59:49.829Z,98187.50
2023-01-17T12:02:18.970Z,98180.44
2023-01-17T12:04:47.783Z,98190.75
2023-01-17T12:07:29.569Z,98192.00
2023-01-17T12:10:09.430Z,98191.50
2023-01-17T12:12:57.361Z,98199.69
2023-01-17T12:15:30.145Z,98198.97
2023-01-17T12:18:24.531Z,98201.84
2023-01-17T12:21:03.085Z,98197.16
2023-01-17T12:24:03.408Z,98205.97
2023-01-17T12:26:38.443Z,98193.31
2023-01-17T12:29:49.870Z,98193.16
2023-01-17T12:32:22.399Z,98198.41
2023-01-17T12:34:58.966Z,98192.75
2023-01-17T12:37:34.485Z,98201.31
2023-01-17T12:40:13.023Z,98190.00
2023-01-17T12:42:48.801Z,98191.19
2023-01-17T12:45:24.269Z,98196.06
2023-01-17T12:47:58.832Z,98192.72
2023-01-17T12:50:32.625Z,98195.97
2023-01-17T12:53:20.218Z,98189.53
2023-01-17T12:55:57.711Z,98189.22
2023-01-17T12:58:31.044Z,98194.22
2023-01-17T13:01:18.475Z,98195.66
2023-01-17T13:03:57.741Z,98198.69
2023-01-17T13:07:00.160Z,98197.75
2023-01-17T13:09:48.314Z,98200.19
2023-01-17T13:12:21.032Z,98196.53
2023-01-17T13:14:48.030Z,98200.47
2023-01-17T13:17:32.180Z,98205.72
2023-01-17T13:20:31.822Z,98204.34
2023-01-17T13:23:09.478Z,98206.97
2023-01-17T13:25:48.633Z,98210.06
2023-01-17T13:28:38.294Z,98213.19
2023-01-17T13:31:47.847Z,98220.03
2023-01-17T13:34:20.429Z,98218.66
2023-01-17T13:37:02.432Z,98212.56
2023-01-17T13:39:46.251Z,98218.81
2023-01-17T13:42:28.974Z,98232.31
2023-01-17T13:44:56.683Z,98229.09
2023-01-17T13:47:24.395Z,98229.81
2023-01-17T13:49:56.174Z,98227.72
2023-01-17T13:52:25.275Z,98234.72
2023-01-17T13:54:53.256Z,98232.31
2023-01-17T13:57:33.050Z,98245.75
2023-01-17T14:00:35.781Z,98247.97
2023-01-17T14:03:03.988Z,98247.91
2023-01-17T14:05:30.483Z,98250.66
2023-01-17T14:08:12.428Z,98255.19
2023-01-17T14:10:41.938Z,98265.78
2023-01-17T14:13:37.294Z,98266.16
2023-01-17T14:16:28.514Z,98259.16
2023-01-17T14:18:55.742Z,98259.22
2023-01-17T14:21:23.916Z,98264.88
2023-01-17T14:23:59.432Z,98261.38
2023-01-17T14:26:33.212Z,98268.28
2023-01-17T14:29:39.865Z,98268.28
2023-01-17T14:32:11.834Z,98270.00
2023-01-17T14:34:38.396Z,98271.13
2023-01-17T14:37:16.034Z,98274.09
2023-01-17T14:39:44.946Z,98277.22
2023-01-17T14:42:16.191Z,98277.00
2023-01-17T14:44:46.895Z,98275.72
2023-01-17T14:47:14.796Z,98280.06
2023-01-17T14:49:41.461Z,98274.69
2023-01-17T14:52:17.568Z,98276.19
2023-01-17T14:54:48.880Z,98268.66
2023-01-17T14:57:25.290Z,98267.88
2023-01-17T14:59:51.751Z,98266.34
2023-01-17T15:02:18.668Z,98268.22
2023-01-17T15:04:53.698Z,98265.28
2023-01-17T15:07:20.333Z,98265.63
2023-01-17T15:09:47.059Z,98264.66
2023-01-17T15:12:14.454Z,98262.00
2023-01-17T15:14:44.783Z,98259.84
2023-01-17T15:17:24.682Z,98261.25
2023-01-17T15:19:56.965Z,98268.19
2023-01-17T15:22:25.798Z,98264.75
2023-01-17T15:24:53.553Z,98269.91
2023-01-17T15:27:20.474Z,98269.88
2023-01-17T15:29:47.740Z,98283.56
2023-01-17T15:32:24.189Z,98278.28
2023-01-17T15:34:52.041Z,98272.94
2023-01-17T15:37:29.702Z,98280.44
2023-01-17T15:40:04.197Z,98275.38
2023-01-17T15:42:32.391Z,98282.63
2023-01-17T15:45:03.402Z,98286.94
2023-01-17T15:47:33.124Z,98281.59
2023-01-17T15:50:02.401Z,98286.16
2023-01-17T15:52:29.101Z,98281.88
2023-01-17T15:55:12.455Z,98284.31
2023-01-17T15:57:39.656Z,98289.38
2023-01-17T16:00:32.441Z,98282.75
2023-01-17T16:02:59.611Z,98294.25
2023-01-17T16:05:30.934Z,98299.63
2023-01-17T16:08:22.850Z,98292.91
2023-01-17T16:10:54.954Z,98304.94
2023-01-17T16:13:21.854Z,98313.81
2023-01-17T16:15:48.658Z,98328.56
2023-01-17T16:18:18.847Z,98331.75
2023-01-17T16:21:05.442Z,98328.56
2023-01-17T16:23:32.031Z,98332.31
2023-01-17T16:25:58.513Z,98327.75
2023-01-17T16:28:25.069Z,98337.69
2023-01-17T16:30:53.961Z,98335.50
2023-01-17T16:33:20.517Z,98347.56
2023-01-17T16:35:47.369Z,98348.09
2023-01-17T16:38:19.020Z,98350.78
2023-01-17T16:40:46.557Z,98354.25
2023-01-17T16:43:14.593Z,98351.88
2023-01-17T16:45:43.262Z,98355.31
2023-01-17T16:48:11.375Z,98347.56
2023-01-17T16:50:41.442Z,98360.69
2023-01-17T16:53:08.047Z,98355.31
2023-01-17T16:55:34.548Z,98362.28
2023-01-17T16:58:01.303Z,98355.88
2023-01-17T17:00:27.670Z,98366.31
2023-01-17T17:02:54.261Z,98365.25
2023-01-17T17:05:20.834Z,98371.13
2023-01-17T17:07:50.797Z,98373.78
2023-01-17T17:10:19.875Z,98376.47
2023-01-17T17:12:46.496Z,98376.47
2023-01-17T17:15:13.703Z,98371.41
2023-01-17T17:17:42.055Z,98375.41
2023-01-17T17:20:13.859Z,98375.41
2023-01-17T17:22:45.313Z,98375.41
2023-01-17T17:25:12.303Z,98374.59
2023-01-17T17:27:39.249Z,98373.81
2023-01-17T17:30:07.072Z,98369.50
2023-01-17T17:32:33.666Z,98358.56
2023-01-17T17:35:00.620Z,98358.56
2023-01-17T17:37:30.328Z,98359.88
2023-01-17T17:39:57.136Z,98366.31
2023-01-17T17:42:23.905Z,98371.66
2023-01-17T17:44:50.328Z,98367.38
2023-01-17T17:47:17.778Z,98365.75
2023-01-17T17:49:44.330Z,98380.19
2023-01-17T17:52:10.763Z,98378.31
2023-01-17T17:54:37.266Z,98385.25
2023-01-17T17:57:03.755Z,98385.81
2023-01-17T17:59:31.105Z,98390.63
2023-01-17T18:01:58.842Z,98386.03
2023-01-17T18:04:25.648Z,98388.19
2023-01-17T18:06:55.603Z,98388.44
2023-01-17T18:09:22.070Z,98395.63
2023-01-17T18:11:48.545Z,98387.88
2023-01-17T18:14:15.583Z,98390.31
2023-01-17T18:16:43.915Z,98392.97
2023-01-17T18:19:19.432Z,98389.50
2023-01-17T18:21:46.515Z,98396.97
2023-01-17T18:24:16.005Z,98389.50
2023-01-17T18:26:50.951Z,98388.94
2023-01-17T18:29:19.492Z,98398.81
2023-01-17T18:31:47.506Z,98402.06
2023-01-17T18:34:16.122Z,98398.28
2023-01-17T18:36:43.612Z,98402.59
2023-01-17T18:39:15.815Z,98402.59
2023-01-17T18:41:42.337Z,98404.41
2023-01-17T18:44:10.140Z,98404.66
2023-01-17T18:46:37.471Z,98414.78
2023-01-17T18:49:04.661Z,98413.97
2023-01-17T18:51:33.430Z,98408.38
2023-01-17T18:54:02.915Z,98422.75
2023-01-17T18:56:32.054Z,98422.22
2023-01-17T18:58:58.666Z,98425.19
2023-01-17T19:01:28.148Z,98423.28
2023-01-17T19:04:00.527Z,98423.78
2023-01-17T19:06:31.039Z,98417.91
2023-01-17T19:09:01.210Z,98419.78
2023-01-17T19:11:28.519Z,98428.88
2023-01-17T19:13:55.552Z,98425.13
2023-01-17T19:16:28.205Z,98432.03
2023-01-17T19:18:56.961Z,98443.81
2023-01-17T19:21:25.764Z,98449.63
2023-01-17T19:23:53.443Z,98449.03
2023-01-17T19:26:20.395Z,98446.38
2023-01-17T19:28:48.575Z,98458.91
2023-01-17T19:31:21.175Z,98457.34
2023-01-17T19:33:49.658Z,98459.78
2023-01-17T19:36:19.792Z,98449.91
2023-01-17T19:39:02.955Z,98453.66
2023-01-17T19:41:30.717Z,98451.53
2023-01-17T19:44:03.579Z,98459.53
2023-01-17T19:46:30.512Z,98454.97
2023-01-17T19:48:57.624Z,98458.69
2023-01-17T19:51:26.715Z,98457.88
2023-01-17T19:53:56.430Z,98456.00
2023-01-17T19:56:25.342Z,98464.25
2023-01-17T19:58:52.358Z,98472.31
2023-01-17T20:01:28.620Z,98469.84
2023-01-17T20:03:57.889Z,98469.00
2023-01-17T20:06:29.235Z,98482.66
2023-01-17T20:08:56.224Z,98482.09
2023-01-17T20:11:24.192Z,98482.34
2023-01-17T20:13:55.601Z,98489.84
2023-01-17T20:16:23.497Z,98491.97
2023-01-17T20:18:50.713Z,98488.78
2023-01-17T20:21:19.679Z,98489.84
2023-01-17T20:23:47.821Z,98494.91
2023-01-17T20:26:16.594Z,98494.09
2023-01-17T20:28:45.161Z,98492.19
2023-01-17T20:31:14.438Z,98499.63
2023-01-17T20:33:43.068Z,98497.28
2023-01-17T20:36:12.336Z,98496.78
2023-01-17T20:38:45.017Z,98490.38
2023-01-17T20:41:19.925Z,98493.84
2023-01-17T20:43:48.845Z,98495.97
2023-01-17T20:46:17.027Z,98503.75
2023-01-17T20:48:45.414Z,98490.91
2023-01-17T20:51:12.149Z,98490.38
2023-01-17T20:53:40.295Z,98502.38
2023-01-17T20:56:08.745Z,98505.00
2023-01-17T20:58:35.848Z,98506.41
2023-01-17T21:01:02.799Z,98509.63
2023-01-17T21:03:29.376Z,98513.38
2023-01-17T21:06:03.802Z,98515.72
2023-01-17T21:08:32.462Z,98511.28
2023-01-17T21:10:59.132Z,98502.34
2023-01-17T21:13:26.098Z,98510.34
2023-01-17T21:15:52.842Z,98511.69
2023-01-17T21:18:21.807Z,98514.84
2023-01-17T21:20:48.963Z,98508.41
2023-01-17T21:23:19.117Z,98512.16
2023-01-17T21:25:55.870Z,98513.44
2023-01-17T21:28:25.008Z,98509.22
2023-01-17T21:30:52.413Z,98507.59
2023-01-17T21:33:20.527Z,98502.75
2023-01-17T21:35:46.989Z,98507.00
2023-01-17T21:38:14.298Z,98513.88
2023-01-17T21:40:41.283Z,98511.16
2023-01-17T21:43:08.298Z,98513.59
2023-01-17T21:45:41.930Z,98514.44
2023-01-17T21:48:14.504Z,98518.72
2023-01-17T21:50:41.000Z,98519.81
2023-01-17T21:53:10.015Z,98521.69
2023-01-17T21:55:55.619Z,98528.06
2023-01-17T21:58:40.841Z,98529.91
2023-01-17T22:01:09.007Z,98538.13
2023-01-17T22:03:36.149Z,98530.66
2023-01-17T22:06:04.567Z,98549.06
2023-01-17T22:08:32.848Z,98546.38
2023-01-17T22:11:07.296Z,98548.25
2023-01-17T22:13:35.100Z,98557.00
2023-01-17T22:16:04.721Z,98555.47
2023-01-17T22:18:33.939Z,98560.75
2023-01-17T22:21:07.921Z,98559.56
2023-01-17T22:23:35.080Z,98561.19
2023-01-17T22:26:03.769Z,98571.88
2023-01-17T22:28:31.868Z,98575.81
2023-01-17T22:31:10.650Z,98579.81
2023-01-17T22:33:38.302Z,98577.16
2023-01-17T22:36:06.071Z,98584.31
2023-01-17T22:38:33.753Z,98582.25
2023-01-17T22:41:08.105Z,98583.78
2023-01-17T22:43:36.341Z,98580.56
2023-01-17T22:46:04.753Z,98581.56
2023-01-17T22:48:33.391Z,98586.38
2023-01-17T22:51:02.335Z,98585.94
2023-01-17T22:53:29.701Z,98594.50
2023-01-17T22:56:04.337Z,98595.00
2023-01-17T22:58:31.749Z,98592.53
2023-01-17T23:01:15.927Z,98593.03
2023-01-17T23:03:42.475Z,98590.03
2023-01-17T23:06:16.643Z,98587.91
2023-01-17T23:08:45.922Z,98589.69
2023-01-17T23:11:44.909Z,98594.66
2023-01-17T23:14:18.562Z,98585.16
2023-01-17T23:17:26.976Z,98589.75
2023-01-17T23:19:54.565Z,98585.28
2023-01-17T23:22:26.994Z,98592.19
2023-01-17T23:25:11.479Z,98602.47
2023-01-17T23:27:59.559Z,98601.34
2023-01-17T23:30:35.401Z,98602.41
2023-01-17T23:33:04.816Z,98603.28
2023-01-17T23:35:33.686Z,98606.78
2023-01-17T23:38:19.047Z,98609.16
2023-01-17T23:41:05.304Z,98613.75
2023-01-17T23:43:32.833Z,98610.09
2023-01-17T23:45:59.661Z,98613.81
2023-01-17T23:48:26.603Z,98614.28
2023-01-17T23:51:01.038Z,98613.75
2023-01-17T23:53:28.442Z,98613.44
2023-01-17T23:55:56.544Z,98612.88
2023-01-17T23:58:25.419Z,98619.81
